createdAt,value
2022-12-10T09:44:22.918Z,95.16
2022-12-10T22:01:25.814Z,89.88
2022-12-10T22:04:26.125Z,89.30
2022-12-10T22:07:00.811Z,88.72
2022-12-10T22:09:38.935Z,88.64
2022-12-10T22:12:21.310Z,88.46
2022-12-10T22:14:59.292Z,88.25
2022-12-10T22:17:35.015Z,87.79
2022-12-10T22:20:15.243Z,88.26
2022-12-10T22:22:45.578Z,87.15
2022-12-10T22:25:41.210Z,87.80
2022-12-10T22:28:24.542Z,88.26
2022-12-10T22:30:56.372Z,88.43
2022-12-10T22:34:24.696Z,88.71
2022-12-10T22:37:01.374Z,88.13
2022-12-10T22:39:35.624Z,87.04
2022-12-10T22:42:21.274Z,87.74
2022-12-10T22:44:53.683Z,86.85
2022-12-10T22:47:45.464Z,87.63
2022-12-10T22:50:16.003Z,87.88
2022-12-10T22:52:46.486Z,88.04
2022-12-10T22:55:16.004Z,87.92
2022-12-10T22:57:45.676Z,87.72
2022-12-10T23:00:20.143Z,88.03
2022-12-10T23:02:52.620Z,87.80
2022-12-10T23:05:31.524Z,87.13
2022-12-10T23:08:09.656Z,87.39
2022-12-10T23:10:40.010Z,87.45
2022-12-10T23:13:09.985Z,86.97
2022-12-10T23:15:46.731Z,87.51
2022-12-10T23:18:40.368Z,87.71
2022-12-10T23:21:54.240Z,88.00
2022-12-10T23:24:24.375Z,88.06
2022-12-10T23:26:54.804Z,87.75
2022-12-10T23:29:21.947Z,88.24
2022-12-10T23:31:54.973Z,88.38
2022-12-10T23:34:26.621Z,87.84
2022-12-10T23:36:56.497Z,87.71
2022-12-10T23:39:50.312Z,87.46
2022-12-10T23:42:19.636Z,87.13
2022-12-10T23:44:50.389Z,86.88
2022-12-10T23:47:21.310Z,86.97
2022-12-10T23:49:52.169Z,86.38
2022-12-10T23:52:20.418Z,86.94
2022-12-10T23:54:53.652Z,86.80
2022-12-10T23:57:30.181Z,86.37
2022-12-10T23:59:59.579Z,86.57
